sensor_id;sensor_type;location;lat;lon;timestamp;temperature;humidity
3912;DHT22;1971;51.778;10.330;2022-09-01T00:00:04;11.10;1.00
3912;DHT22;1971;51.778;10.330;2022-09-01T00:02:47;11.00;1.00
3912;DHT22;1971;51.778;10.330;2022-09-01T00:05:24;11.00;1.00
3912;DHT22;1971;51.778;10.330;2022-09-01T00:08:06;10.90;1.00
3912;DHT22;1971;51.778;10.330;2022-09-01T00:10:44;10.70;1.00
3912;DHT22;1971;51.778;10.330;2022-09-01T00:13:27;10.60;1.00
3912;DHT22;1971;51.778;10.330;2022-09-01T00:16:06;10.60;1.00
3912;DHT22;1971;51.778;10.330;2022-09-01T00:18:49;10.60;1.00
3912;DHT22;1971;51.778;10.330;2022-09-01T00:21:34;10.60;1.00
3912;DHT22;1971;51.778;10.330;2022-09-01T00:24:13;10.50;1.00
3912;DHT22;1971;51.778;10.330;2022-09-01T00:26:58;10.30;1.00
3912;DHT22;1971;51.778;10.330;2022-09-01T00:29:35;9.90;1.00
3912;DHT22;1971;51.778;10.330;2022-09-01T00:32:18;9.60;1.00
3912;DHT22;1971;51.778;10.330;2022-09-01T00:34:55;9.40;1.00
3912;DHT22;1971;51.778;10.330;2022-09-01T00:37:38;9.30;1.00
3912;DHT22;1971;51.778;10.330;2022-09-01T00:40:15;9.20;1.00
3912;DHT22;1971;51.778;10.330;2022-09-01T00:43:00;9.10;1.00
3912;DHT22;1971;51.778;10.330;2022-09-01T00:45:45;9.00;1.00
3912;DHT22;1971;51.778;10.330;2022-09-01T00:48:28;8.90;1.00
3912;DHT22;1971;51.778;10.330;2022-09-01T00:51:07;8.90;1.00
3912;DHT22;1971;51.778;10.330;2022-09-01T00:53:51;8.90;1.00
3912;DHT22;1971;51.778;10.330;2022-09-01T00:56:31;9.00;1.00
3912;DHT22;1971;51.778;10.330;2022-09-01T00:59:12;9.00;1.00
3912;DHT22;1971;51.778;10.330;2022-09-01T01:01:54;9.00;1.00
3912;DHT22;1971;51.778;10.330;2022-09-01T01:04:31;9.00;1.00
3912;DHT22;1971;51.778;10.330;2022-09-01T01:07:14;9.10;1.00
3912;DHT22;1971;51.778;10.330;2022-09-01T01:09:51;9.10;1.00
3912;DHT22;1971;51.778;10.330;2022-09-01T01:12:34;9.20;1.00
3912;DHT22;1971;51.778;10.330;2022-09-01T01:15:16;9.10;1.00
3912;DHT22;1971;51.778;10.330;2022-09-01T01:17:58;9.10;1.00
3912;DHT22;1971;51.778;10.330;2022-09-01T01:20:34;9.00;1.00
3912;DHT22;1971;51.778;10.330;2022-09-01T01:23:32;8.70;1.00
3912;DHT22;1971;51.778;10.330;2022-09-01T01:26:13;8.50;1.00
3912;DHT22;1971;51.778;10.330;2022-09-01T01:28:56;8.50;1.00
3912;DHT22;1971;51.778;10.330;2022-09-01T01:31:36;8.50;1.00
3912;DHT22;1971;51.778;10.330;2022-09-01T01:34:13;8.50;1.00
3912;DHT22;1971;51.778;10.330;2022-09-01T01:36:56;8.50;1.00
3912;DHT22;1971;51.778;10.330;2022-09-01T01:39:34;8.50;1.00
3912;DHT22;1971;51.778;10.330;2022-09-01T01:42:21;8.30;1.00
3912;DHT22;1971;51.778;10.330;2022-09-01T01:44:59;8.20;1.00
3912;DHT22;1971;51.778;10.330;2022-09-01T01:47:41;8.10;1.00
3912;DHT22;1971;51.778;10.330;2022-09-01T01:50:18;8.10;1.00
3912;DHT22;1971;51.778;10.330;2022-09-01T01:53:00;8.10;1.00
3912;DHT22;1971;51.778;10.330;2022-09-01T01:55:44;8.20;1.00
3912;DHT22;1971;51.778;10.330;2022-09-01T01:58:30;8.20;1.00
3912;DHT22;1971;51.778;10.330;2022-09-01T02:01:07;8.30;1.00
3912;DHT22;1971;51.778;10.330;2022-09-01T02:03:50;8.30;1.00
3912;DHT22;1971;51.778;10.330;2022-09-01T02:06:31;8.40;1.00
3912;DHT22;1971;51.778;10.330;2022-09-01T02:09:17;8.50;1.00
3912;DHT22;1971;51.778;10.330;2022-09-01T02:11:53;8.60;1.00
3912;DHT22;1971;51.778;10.330;2022-09-01T02:14:38;8.70;1.00
3912;DHT22;1971;51.778;10.330;2022-09-01T02:17:16;8.80;1.00
3912;DHT22;1971;51.778;10.330;2022-09-01T02:19:54;8.80;1.00
3912;DHT22;1971;51.778;10.330;2022-09-01T02:22:36;8.90;1.00
3912;DHT22;1971;51.778;10.330;2022-09-01T02:25:13;9.00;1.00
3912;DHT22;1971;51.778;10.330;2022-09-01T02:27:58;9.00;1.00
3912;DHT22;1971;51.778;10.330;2022-09-01T02:30:38;8.90;1.00
3912;DHT22;1971;51.778;10.330;2022-09-01T02:33:22;8.90;1.00
3912;DHT22;1971;51.778;10.330;2022-09-01T02:36:01;9.10;1.00
3912;DHT22;1971;51.778;10.330;2022-09-01T02:38:44;9.10;1.00
3912;DHT22;1971;51.778;10.330;2022-09-01T02:41:26;9.00;1.00
3912;DHT22;1971;51.778;10.330;2022-09-01T02:44:10;9.00;1.00
3912;DHT22;1971;51.778;10.330;2022-09-01T02:46:49;9.10;1.00
3912;DHT22;1971;51.778;10.330;2022-09-01T02:49:32;9.20;1.00
3912;DHT22;1971;51.778;10.330;2022-09-01T02:52:15;9.20;1.00
3912;DHT22;1971;51.778;10.330;2022-09-01T02:54:53;9.10;1.00
3912;DHT22;1971;51.778;10.330;2022-09-01T02:57:36;9.10;1.00
3912;DHT22;1971;51.778;10.330;2022-09-01T03:00:14;9.20;1.00
3912;DHT22;1971;51.778;10.330;2022-09-01T03:03:05;9.20;1.00
3912;DHT22;1971;51.778;10.330;2022-09-01T03:05:42;9.30;1.00
3912;DHT22;1971;51.778;10.330;2022-09-01T03:08:24;9.20;1.00
3912;DHT22;1971;51.778;10.330;2022-09-01T03:11:00;9.20;1.00
3912;DHT22;1971;51.778;10.330;2022-09-01T03:13:43;9.10;1.00
3912;DHT22;1971;51.778;10.330;2022-09-01T03:16:20;8.90;1.00
3912;DHT22;1971;51.778;10.330;2022-09-01T03:19:06;8.80;1.00
3912;DHT22;1971;51.778;10.330;2022-09-01T03:21:44;8.50;1.00
3912;DHT22;1971;51.778;10.330;2022-09-01T03:24:27;8.30;1.00
3912;DHT22;1971;51.778;10.330;2022-09-01T03:27:04;8.20;1.00
3912;DHT22;1971;51.778;10.330;2022-09-01T03:29:47;8.20;1.00
3912;DHT22;1971;51.778;10.330;2022-09-01T03:32:23;8.20;1.00
3912;DHT22;1971;51.778;10.330;2022-09-01T03:35:02;8.20;1.00
3912;DHT22;1971;51.778;10.330;2022-09-01T03:37:45;8.10;1.00
3912;DHT22;1971;51.778;10.330;2022-09-01T03:40:21;8.20;1.00
3912;DHT22;1971;51.778;10.330;2022-09-01T03:43:07;8.20;1.00
3912;DHT22;1971;51.778;10.330;2022-09-01T03:45:46;8.20;1.00
3912;DHT22;1971;51.778;10.330;2022-09-01T03:48:29;8.20;1.00
3912;DHT22;1971;51.778;10.330;2022-09-01T03:51:08;8.20;1.00
3912;DHT22;1971;51.778;10.330;2022-09-01T03:53:53;8.10;1.00
3912;DHT22;1971;51.778;10.330;2022-09-01T03:56:31;8.10;1.00
3912;DHT22;1971;51.778;10.330;2022-09-01T03:59:13;8.20;1.00
3912;DHT22;1971;51.778;10.330;2022-09-01T04:01:52;8.20;1.00
3912;DHT22;1971;51.778;10.330;2022-09-01T04:04:35;8.20;1.00
3912;DHT22;1971;51.778;10.330;2022-09-01T04:07:14;8.30;1.00
3912;DHT22;1971;51.778;10.330;2022-09-01T04:09:56;8.30;1.00
3912;DHT22;1971;51.778;10.330;2022-09-01T04:12:33;8.30;1.00
3912;DHT22;1971;51.778;10.330;2022-09-01T04:15:10;8.30;1.00
3912;DHT22;1971;51.778;10.330;2022-09-01T04:17:52;8.30;1.00
3912;DHT22;1971;51.778;10.330;2022-09-01T04:20:42;8.20;1.00
3912;DHT22;1971;51.778;10.330;2022-09-01T04:23:33;8.20;1.00
3912;DHT22;1971;51.778;10.330;2022-09-01T04:26:10;8.10;1.00
3912;DHT22;1971;51.778;10.330;2022-09-01T04:28:53;8.10;1.00
3912;DHT22;1971;51.778;10.330;2022-09-01T04:31:29;8.20;1.00
3912;DHT22;1971;51.778;10.330;2022-09-01T04:34:11;8.30;1.00
3912;DHT22;1971;51.778;10.330;2022-09-01T04:36:49;8.30;1.00
3912;DHT22;1971;51.778;10.330;2022-09-01T04:39:35;8.30;1.00
3912;DHT22;1971;51.778;10.330;2022-09-01T04:42:11;8.40;1.00
3912;DHT22;1971;51.778;10.330;2022-09-01T04:44:55;8.50;1.00
3912;DHT22;1971;51.778;10.330;2022-09-01T04:47:37;8.70;1.00
3912;DHT22;1971;51.778;10.330;2022-09-01T04:50:20;8.80;1.00
3912;DHT22;1971;51.778;10.330;2022-09-01T04:53:00;9.00;1.00
3912;DHT22;1971;51.778;10.330;2022-09-01T04:55:41;9.00;1.00
3912;DHT22;1971;51.778;10.330;2022-09-01T04:58:24;8.90;1.00
3912;DHT22;1971;51.778;10.330;2022-09-01T05:01:02;8.90;1.00
3912;DHT22;1971;51.778;10.330;2022-09-01T05:03:49;8.80;1.00
3912;DHT22;1971;51.778;10.330;2022-09-01T05:06:30;8.80;1.00
3912;DHT22;1971;51.778;10.330;2022-09-01T05:09:13;8.80;1.00
3912;DHT22;1971;51.778;10.330;2022-09-01T05:11:52;8.70;1.00
3912;DHT22;1971;51.778;10.330;2022-09-01T05:14:36;8.50;1.00
3912;DHT22;1971;51.778;10.330;2022-09-01T05:17:15;8.60;1.00
3912;DHT22;1971;51.778;10.330;2022-09-01T05:19:57;8.60;1.00
3912;DHT22;1971;51.778;10.330;2022-09-01T05:22:35;8.70;1.00
3912;DHT22;1971;51.778;10.330;2022-09-01T05:25:13;8.80;1.00
3912;DHT22;1971;51.778;10.330;2022-09-01T05:27:59;9.00;1.00
3912;DHT22;1971;51.778;10.330;2022-09-01T05:30:35;9.30;1.00
3912;DHT22;1971;51.778;10.330;2022-09-01T05:33:17;9.60;1.00
3912;DHT22;1971;51.778;10.330;2022-09-01T05:35:57;9.80;1.00
3912;DHT22;1971;51.778;10.330;2022-09-01T05:38:40;10.00;1.00
3912;DHT22;1971;51.778;10.330;2022-09-01T05:41:21;10.20;1.00
3912;DHT22;1971;51.778;10.330;2022-09-01T05:44:06;10.50;1.00
3912;DHT22;1971;51.778;10.330;2022-09-01T05:46:43;10.80;1.00
3912;DHT22;1971;51.778;10.330;2022-09-01T05:49:25;11.20;1.00
3912;DHT22;1971;51.778;10.330;2022-09-01T05:52:03;11.50;1.00
3912;DHT22;1971;51.778;10.330;2022-09-01T05:54:47;11.90;1.00
3912;DHT22;1971;51.778;10.330;2022-09-01T05:57:24;12.20;1.00
3912;DHT22;1971;51.778;10.330;2022-09-01T06:00:10;12.50;1.00
3912;DHT22;1971;51.778;10.330;2022-09-01T06:02:47;12.90;1.00
3912;DHT22;1971;51.778;10.330;2022-09-01T06:05:26;13.20;1.00
3912;DHT22;1971;51.778;10.330;2022-09-01T06:08:10;13.60;1.00
3912;DHT22;1971;51.778;10.330;2022-09-01T06:10:48;13.90;1.00
3912;DHT22;1971;51.778;10.330;2022-09-01T06:13:30;14.20;1.00
3912;DHT22;1971;51.778;10.330;2022-09-01T06:16:09;14.40;1.00
3912;DHT22;1971;51.778;10.330;2022-09-01T06:18:54;14.60;1.00
3912;DHT22;1971;51.778;10.330;2022-09-01T06:21:32;14.90;1.00
3912;DHT22;1971;51.778;10.330;2022-09-01T06:24:17;15.10;1.00
3912;DHT22;1971;51.778;10.330;2022-09-01T06:26:53;15.10;1.00
3912;DHT22;1971;51.778;10.330;2022-09-01T06:29:39;15.20;1.00
3912;DHT22;1971;51.778;10.330;2022-09-01T06:32:24;15.30;1.00
3912;DHT22;1971;51.778;10.330;2022-09-01T06:35:01;15.40;1.00
3912;DHT22;1971;51.778;10.330;2022-09-01T06:37:42;15.40;1.00
3912;DHT22;1971;51.778;10.330;2022-09-01T06:40:26;15.40;1.00
3912;DHT22;1971;51.778;10.330;2022-09-01T06:43:02;15.50;1.00
3912;DHT22;1971;51.778;10.330;2022-09-01T06:45:42;15.60;1.00
3912;DHT22;1971;51.778;10.330;2022-09-01T06:48:30;15.70;1.00
3912;DHT22;1971;51.778;10.330;2022-09-01T06:51:06;15.80;1.00
3912;DHT22;1971;51.778;10.330;2022-09-01T06:53:52;15.90;1.00
3912;DHT22;1971;51.778;10.330;2022-09-01T06:56:32;15.90;1.00
3912;DHT22;1971;51.778;10.330;2022-09-01T06:59:14;16.00;1.00
3912;DHT22;1971;51.778;10.330;2022-09-01T07:01:50;16.10;1.00
3912;DHT22;1971;51.778;10.330;2022-09-01T07:04:37;16.10;1.00
3912;DHT22;1971;51.778;10.330;2022-09-01T07:07:16;16.30;99.90
3912;DHT22;1971;51.778;10.330;2022-09-01T07:10:00;16.20;99.90
3912;DHT22;1971;51.778;10.330;2022-09-01T07:12:49;16.40;99.90
3912;DHT22;1971;51.778;10.330;2022-09-01T07:15:39;16.40;99.90
3912;DHT22;1971;51.778;10.330;2022-09-01T07:18:23;16.50;99.90
3912;DHT22;1971;51.778;10.330;2022-09-01T07:21:05;16.60;99.90
3912;DHT22;1971;51.778;10.330;2022-09-01T07:23:47;16.60;99.90
3912;DHT22;1971;51.778;10.330;2022-09-01T07:26:46;16.70;99.90
3912;DHT22;1971;51.778;10.330;2022-09-01T07:29:31;16.80;99.90
3912;DHT22;1971;51.778;10.330;2022-09-01T07:32:07;16.90;99.90
3912;DHT22;1971;51.778;10.330;2022-09-01T07:34:49;17.00;99.90
3912;DHT22;1971;51.778;10.330;2022-09-01T07:37:30;17.10;99.90
3912;DHT22;1971;51.778;10.330;2022-09-01T07:40:17;17.10;99.90
3912;DHT22;1971;51.778;10.330;2022-09-01T07:43:28;17.10;99.90
3912;DHT22;1971;51.778;10.330;2022-09-01T07:46:06;17.30;99.90
3912;DHT22;1971;51.778;10.330;2022-09-01T07:48:49;17.40;99.90
3912;DHT22;1971;51.778;10.330;2022-09-01T07:51:39;17.50;99.90
3912;DHT22;1971;51.778;10.330;2022-09-01T07:54:22;17.40;99.90
3912;DHT22;1971;51.778;10.330;2022-09-01T07:57:04;17.40;99.90
3912;DHT22;1971;51.778;10.330;2022-09-01T07:59:40;17.40;99.90
3912;DHT22;1971;51.778;10.330;2022-09-01T08:02:16;17.10;99.90
3912;DHT22;1971;51.778;10.330;2022-09-01T08:04:58;16.60;99.90
3912;DHT22;1971;51.778;10.330;2022-09-01T08:07:34;16.30;99.90
3912;DHT22;1971;51.778;10.330;2022-09-01T08:10:19;16.30;99.90
3912;DHT22;1971;51.778;10.330;2022-09-01T08:12:56;16.70;99.90
3912;DHT22;1971;51.778;10.330;2022-09-01T08:15:39;17.00;99.90
3912;DHT22;1971;51.778;10.330;2022-09-01T08:18:29;16.90;99.90
3912;DHT22;1971;51.778;10.330;2022-09-01T08:21:24;16.60;99.90
3912;DHT22;1971;51.778;10.330;2022-09-01T08:24:06;16.20;99.90
3912;DHT22;1971;51.778;10.330;2022-09-01T08:26:45;16.40;99.90
3912;DHT22;1971;51.778;10.330;2022-09-01T08:29:27;16.60;99.90
3912;DHT22;1971;51.778;10.330;2022-09-01T08:32:05;16.80;99.90
3912;DHT22;1971;51.778;10.330;2022-09-01T08:34:49;16.60;99.90
3912;DHT22;1971;51.778;10.330;2022-09-01T08:37:25;16.50;99.90
3912;DHT22;1971;51.778;10.330;2022-09-01T08:40:11;16.50;99.90
3912;DHT22;1971;51.778;10.330;2022-09-01T08:42:58;16.70;99.90
3912;DHT22;1971;51.778;10.330;2022-09-01T08:45:46;17.10;99.90
3912;DHT22;1971;51.778;10.330;2022-09-01T08:48:32;17.70;99.90
3912;DHT22;1971;51.778;10.330;2022-09-01T08:51:34;18.30;99.90
3912;DHT22;1971;51.778;10.330;2022-09-01T08:54:23;18.50;99.90
3912;DHT22;1971;51.778;10.330;2022-09-01T08:57:06;18.60;99.90
3912;DHT22;1971;51.778;10.330;2022-09-01T08:59:52;18.80;99.90
3912;DHT22;1971;51.778;10.330;2022-09-01T09:02:41;18.60;99.90
3912;DHT22;1971;51.778;10.330;2022-09-01T09:05:30;18.20;99.90
3912;DHT22;1971;51.778;10.330;2022-09-01T09:08:20;17.80;99.90
3912;DHT22;1971;51.778;10.330;2022-09-01T09:11:07;17.70;99.90
3912;DHT22;1971;51.778;10.330;2022-09-01T09:14:04;17.70;99.90
3912;DHT22;1971;51.778;10.330;2022-09-01T09:16:49;17.80;99.90
3912;DHT22;1971;51.778;10.330;2022-09-01T09:19:35;17.70;99.90
3912;DHT22;1971;51.778;10.330;2022-09-01T09:22:15;17.60;99.90
3912;DHT22;1971;51.778;10.330;2022-09-01T09:25:02;17.70;99.90
3912;DHT22;1971;51.778;10.330;2022-09-01T09:27:41;17.70;99.90
3912;DHT22;1971;51.778;10.330;2022-09-01T09:30:25;17.60;99.90
3912;DHT22;1971;51.778;10.330;2022-09-01T09:33:06;17.50;99.90
3912;DHT22;1971;51.778;10.330;2022-09-01T09:35:50;17.60;99.90
3912;DHT22;1971;51.778;10.330;2022-09-01T09:38:30;17.60;99.90
3912;DHT22;1971;51.778;10.330;2022-09-01T09:41:14;17.70;99.90
3912;DHT22;1971;51.778;10.330;2022-09-01T09:43:59;18.20;99.90
3912;DHT22;1971;51.778;10.330;2022-09-01T09:46:37;18.00;99.90
3912;DHT22;1971;51.778;10.330;2022-09-01T09:49:24;17.90;99.90
3912;DHT22;1971;51.778;10.330;2022-09-01T09:52:15;17.70;99.90
3912;DHT22;1971;51.778;10.330;2022-09-01T09:55:02;17.60;99.90
3912;DHT22;1971;51.778;10.330;2022-09-01T09:57:39;17.50;99.90
3912;DHT22;1971;51.778;10.330;2022-09-01T10:00:25;17.50;99.90
3912;DHT22;1971;51.778;10.330;2022-09-01T10:03:04;17.40;99.90
3912;DHT22;1971;51.778;10.330;2022-09-01T10:05:50;17.20;99.90
3912;DHT22;1971;51.778;10.330;2022-09-01T10:08:36;17.20;99.90
3912;DHT22;1971;51.778;10.330;2022-09-01T10:11:24;17.20;99.90
3912;DHT22;1971;51.778;10.330;2022-09-01T10:14:10;17.10;99.90
3912;DHT22;1971;51.778;10.330;2022-09-01T10:17:05;17.00;99.90
3912;DHT22;1971;51.778;10.330;2022-09-01T10:19:52;17.10;99.90
3912;DHT22;1971;51.778;10.330;2022-09-01T10:22:34;17.10;99.90
3912;DHT22;1971;51.778;10.330;2022-09-01T10:25:20;17.20;99.90
3912;DHT22;1971;51.778;10.330;2022-09-01T10:27:59;17.30;99.90
3912;DHT22;1971;51.778;10.330;2022-09-01T10:30:44;17.30;99.90
3912;DHT22;1971;51.778;10.330;2022-09-01T10:33:24;17.40;99.90
3912;DHT22;1971;51.778;10.330;2022-09-01T10:36:06;17.40;99.90
3912;DHT22;1971;51.778;10.330;2022-09-01T10:38:47;17.30;99.90
3912;DHT22;1971;51.778;10.330;2022-09-01T10:41:45;17.30;99.90
3912;DHT22;1971;51.778;10.330;2022-09-01T10:44:30;17.40;99.90
3912;DHT22;1971;51.778;10.330;2022-09-01T10:47:10;17.50;99.90
3912;DHT22;1971;51.778;10.330;2022-09-01T10:50:02;17.60;99.90
3912;DHT22;1971;51.778;10.330;2022-09-01T10:53:04;17.80;99.90
3912;DHT22;1971;51.778;10.330;2022-09-01T10:55:46;17.90;99.90
3912;DHT22;1971;51.778;10.330;2022-09-01T10:58:57;17.70;99.90
3912;DHT22;1971;51.778;10.330;2022-09-01T11:02:16;17.60;99.90
3912;DHT22;1971;51.778;10.330;2022-09-01T11:05:14;17.60;99.90
3912;DHT22;1971;51.778;10.330;2022-09-01T11:07:51;17.40;99.90
3912;DHT22;1971;51.778;10.330;2022-09-01T11:10:44;17.40;99.90
3912;DHT22;1971;51.778;10.330;2022-09-01T11:13:41;17.60;99.90
3912;DHT22;1971;51.778;10.330;2022-09-01T11:16:31;18.00;99.90
3912;DHT22;1971;51.778;10.330;2022-09-01T11:19:36;18.00;99.90
3912;DHT22;1971;51.778;10.330;2022-09-01T11:25:40;17.90;99.90
3912;DHT22;1971;51.778;10.330;2022-09-01T11:28:39;18.20;99.90
3912;DHT22;1971;51.778;10.330;2022-09-01T11:31:22;18.70;99.90
3912;DHT22;1971;51.778;10.330;2022-09-01T11:34:17;19.00;99.90
3912;DHT22;1971;51.778;10.330;2022-09-01T11:36:57;19.50;99.90
3912;DHT22;1971;51.778;10.330;2022-09-01T11:39:45;19.30;99.90
3912;DHT22;1971;51.778;10.330;2022-09-01T11:42:25;18.90;99.90
3912;DHT22;1971;51.778;10.330;2022-09-01T11:45:16;18.80;99.90
3912;DHT22;1971;51.778;10.330;2022-09-01T11:47:56;19.00;99.90
3912;DHT22;1971;51.778;10.330;2022-09-01T11:50:40;19.10;99.90
3912;DHT22;1971;51.778;10.330;2022-09-01T11:53:21;18.80;99.90
3912;DHT22;1971;51.778;10.330;2022-09-01T11:56:15;18.50;99.90
3912;DHT22;1971;51.778;10.330;2022-09-01T11:58:52;18.20;99.90
3912;DHT22;1971;51.778;10.330;2022-09-01T12:01:34;18.00;99.90
3912;DHT22;1971;51.778;10.330;2022-09-01T12:04:19;17.90;99.90
3912;DHT22;1971;51.778;10.330;2022-09-01T12:07:00;18.00;99.90
3912;DHT22;1971;51.778;10.330;2022-09-01T12:09:44;18.00;99.90
3912;DHT22;1971;51.778;10.330;2022-09-01T12:12:29;18.00;99.90
3912;DHT22;1971;51.778;10.330;2022-09-01T12:15:23;17.90;99.90
3912;DHT22;1971;51.778;10.330;2022-09-01T12:18:13;17.90;99.90
3912;DHT22;1971;51.778;10.330;2022-09-01T12:20:52;18.20;99.90
3912;DHT22;1971;51.778;10.330;2022-09-01T12:23:32;18.80;99.90
3912;DHT22;1971;51.778;10.330;2022-09-01T12:26:17;19.20;99.90
3912;DHT22;1971;51.778;10.330;2022-09-01T12:28:53;19.30;99.90
3912;DHT22;1971;51.778;10.330;2022-09-01T12:31:35;19.50;99.90
3912;DHT22;1971;51.778;10.330;2022-09-01T12:34:27;19.20;99.90
3912;DHT22;1971;51.778;10.330;2022-09-01T12:37:08;19.60;99.90
3912;DHT22;1971;51.778;10.330;2022-09-01T12:39:52;19.80;99.90
3912;DHT22;1971;51.778;10.330;2022-09-01T12:42:35;19.90;99.90
3912;DHT22;1971;51.778;10.330;2022-09-01T12:45:36;20.20;99.90
3912;DHT22;1971;51.778;10.330;2022-09-01T12:48:25;20.40;99.90
3912;DHT22;1971;51.778;10.330;2022-09-01T12:51:17;20.30;99.90
3912;DHT22;1971;51.778;10.330;2022-09-01T12:53:57;20.30;99.90
3912;DHT22;1971;51.778;10.330;2022-09-01T12:56:39;20.70;99.90
3912;DHT22;1971;51.778;10.330;2022-09-01T12:59:24;20.90;99.90
3912;DHT22;1971;51.778;10.330;2022-09-01T13:02:25;21.00;99.90
3912;DHT22;1971;51.778;10.330;2022-09-01T13:05:20;21.00;99.90
3912;DHT22;1971;51.778;10.330;2022-09-01T13:08:01;20.80;99.90
3912;DHT22;1971;51.778;10.330;2022-09-01T13:10:46;21.00;99.90
3912;DHT22;1971;51.778;10.330;2022-09-01T13:13:25;21.10;99.90
3912;DHT22;1971;51.778;10.330;2022-09-01T13:16:07;21.10;99.90
3912;DHT22;1971;51.778;10.330;2022-09-01T13:18:46;21.40;99.90
3912;DHT22;1971;51.778;10.330;2022-09-01T13:21:29;21.20;99.90
3912;DHT22;1971;51.778;10.330;2022-09-01T13:24:09;21.30;99.90
3912;DHT22;1971;51.778;10.330;2022-09-01T13:26:51;21.10;99.90
3912;DHT22;1971;51.778;10.330;2022-09-01T13:29:43;21.00;99.90
3912;DHT22;1971;51.778;10.330;2022-09-01T13:32:20;20.90;99.90
3912;DHT22;1971;51.778;10.330;2022-09-01T13:35:03;20.90;99.90
3912;DHT22;1971;51.778;10.330;2022-09-01T13:37:39;20.80;99.90
3912;DHT22;1971;51.778;10.330;2022-09-01T13:40:24;20.50;99.90
3912;DHT22;1971;51.778;10.330;2022-09-01T13:43:00;20.00;99.90
3912;DHT22;1971;51.778;10.330;2022-09-01T13:45:43;19.70;99.90
3912;DHT22;1971;51.778;10.330;2022-09-01T13:48:21;19.40;99.90
3912;DHT22;1971;51.778;10.330;2022-09-01T13:51:02;19.30;99.90
3912;DHT22;1971;51.778;10.330;2022-09-01T13:53:44;19.10;99.90
3912;DHT22;1971;51.778;10.330;2022-09-01T13:56:29;19.10;99.90
3912;DHT22;1971;51.778;10.330;2022-09-01T13:59:05;19.10;99.90
3912;DHT22;1971;51.778;10.330;2022-09-01T14:01:47;19.10;99.90
3912;DHT22;1971;51.778;10.330;2022-09-01T14:04:23;18.90;99.90
3912;DHT22;1971;51.778;10.330;2022-09-01T14:07:05;18.80;99.90
3912;DHT22;1971;51.778;10.330;2022-09-01T14:09:41;18.80;99.90
3912;DHT22;1971;51.778;10.330;2022-09-01T14:12:26;18.70;99.90
3912;DHT22;1971;51.778;10.330;2022-09-01T14:15:04;18.70;99.90
3912;DHT22;1971;51.778;10.330;2022-09-01T14:17:49;18.60;99.90
3912;DHT22;1971;51.778;10.330;2022-09-01T14:20:33;18.70;99.90
3912;DHT22;1971;51.778;10.330;2022-09-01T14:23:12;18.70;99.90
3912;DHT22;1971;51.778;10.330;2022-09-01T14:25:54;18.60;99.90
3912;DHT22;1971;51.778;10.330;2022-09-01T14:28:34;18.70;99.90
3912;DHT22;1971;51.778;10.330;2022-09-01T14:31:17;19.00;99.90
3912;DHT22;1971;51.778;10.330;2022-09-01T14:33:53;19.10;99.90
3912;DHT22;1971;51.778;10.330;2022-09-01T14:36:35;19.50;99.90
3912;DHT22;1971;51.778;10.330;2022-09-01T14:39:11;19.40;99.90
3912;DHT22;1971;51.778;10.330;2022-09-01T14:41:53;19.30;99.90
3912;DHT22;1971;51.778;10.330;2022-09-01T14:44:35;19.00;99.90
3912;DHT22;1971;51.778;10.330;2022-09-01T14:47:17;19.00;99.90
3912;DHT22;1971;51.778;10.330;2022-09-01T14:49:56;18.80;99.90
3912;DHT22;1971;51.778;10.330;2022-09-01T14:52:32;19.00;99.90
3912;DHT22;1971;51.778;10.330;2022-09-01T14:55:15;19.40;99.90
3912;DHT22;1971;51.778;10.330;2022-09-01T14:57:52;19.70;99.90
3912;DHT22;1971;51.778;10.330;2022-09-01T15:00:36;19.80;99.90
3912;DHT22;1971;51.778;10.330;2022-09-01T15:03:14;20.00;99.90
3912;DHT22;1971;51.778;10.330;2022-09-01T15:05:56;20.20;99.90
3912;DHT22;1971;51.778;10.330;2022-09-01T15:08:32;20.40;99.90
3912;DHT22;1971;51.778;10.330;2022-09-01T15:11:16;20.40;99.90
3912;DHT22;1971;51.778;10.330;2022-09-01T15:13:53;20.60;99.90
3912;DHT22;1971;51.778;10.330;2022-09-01T15:16:39;20.60;99.90
3912;DHT22;1971;51.778;10.330;2022-09-01T15:19:16;20.60;99.90
3912;DHT22;1971;51.778;10.330;2022-09-01T15:22:04;20.80;99.90
3912;DHT22;1971;51.778;10.330;2022-09-01T15:24:42;20.80;99.90
3912;DHT22;1971;51.778;10.330;2022-09-01T15:27:24;20.30;99.90
3912;DHT22;1971;51.778;10.330;2022-09-01T15:30:00;19.70;99.90
3912;DHT22;1971;51.778;10.330;2022-09-01T15:32:40;19.40;99.90
3912;DHT22;1971;51.778;10.330;2022-09-01T15:35:22;19.20;99.90
3912;DHT22;1971;51.778;10.330;2022-09-01T15:37:59;19.30;99.90
3912;DHT22;1971;51.778;10.330;2022-09-01T15:40:42;19.30;99.90
3912;DHT22;1971;51.778;10.330;2022-09-01T15:43:24;19.10;99.90
3912;DHT22;1971;51.778;10.330;2022-09-01T15:46:06;19.10;99.90
3912;DHT22;1971;51.778;10.330;2022-09-01T15:48:47;19.50;99.90
3912;DHT22;1971;51.778;10.330;2022-09-01T15:51:32;19.90;99.90
3912;DHT22;1971;51.778;10.330;2022-09-01T15:54:11;20.20;99.90
3912;DHT22;1971;51.778;10.330;2022-09-01T15:56:52;20.60;99.90
3912;DHT22;1971;51.778;10.330;2022-09-01T15:59:28;20.70;99.90
3912;DHT22;1971;51.778;10.330;2022-09-01T16:02:11;20.60;99.90
3912;DHT22;1971;51.778;10.330;2022-09-01T16:04:50;20.80;99.90
3912;DHT22;1971;51.778;10.330;2022-09-01T16:07:28;20.70;99.90
3912;DHT22;1971;51.778;10.330;2022-09-01T16:10:11;20.60;99.90
3912;DHT22;1971;51.778;10.330;2022-09-01T16:12:47;20.70;99.90
3912;DHT22;1971;51.778;10.330;2022-09-01T16:15:31;20.70;99.90
3912;DHT22;1971;51.778;10.330;2022-09-01T16:18:17;20.60;99.90
3912;DHT22;1971;51.778;10.330;2022-09-01T16:21:05;20.70;99.90
3912;DHT22;1971;51.778;10.330;2022-09-01T16:23:49;20.30;99.90
3912;DHT22;1971;51.778;10.330;2022-09-01T16:26:33;20.10;99.90
3912;DHT22;1971;51.778;10.330;2022-09-01T16:29:14;19.90;99.90
3912;DHT22;1971;51.778;10.330;2022-09-01T16:31:57;20.30;99.90
3912;DHT22;1971;51.778;10.330;2022-09-01T16:34:35;20.60;99.90
3912;DHT22;1971;51.778;10.330;2022-09-01T16:37:31;21.00;99.90
3912;DHT22;1971;51.778;10.330;2022-09-01T16:40:22;21.40;99.90
3912;DHT22;1971;51.778;10.330;2022-09-01T16:43:06;21.00;99.90
3912;DHT22;1971;51.778;10.330;2022-09-01T16:45:57;20.50;99.90
3912;DHT22;1971;51.778;10.330;2022-09-01T16:48:44;19.60;99.90
3912;DHT22;1971;51.778;10.330;2022-09-01T16:51:30;19.00;99.90
3912;DHT22;1971;51.778;10.330;2022-09-01T16:54:12;18.40;99.90
3912;DHT22;1971;51.778;10.330;2022-09-01T16:57:04;18.00;99.90
3912;DHT22;1971;51.778;10.330;2022-09-01T16:59:47;17.80;99.90
3912;DHT22;1971;51.778;10.330;2022-09-01T17:02:32;17.60;99.90
3912;DHT22;1971;51.778;10.330;2022-09-01T17:05:20;17.50;99.90
3912;DHT22;1971;51.778;10.330;2022-09-01T17:08:07;17.30;99.90
3912;DHT22;1971;51.778;10.330;2022-09-01T17:10:54;17.20;99.90
3912;DHT22;1971;51.778;10.330;2022-09-01T17:13:36;17.00;99.90
3912;DHT22;1971;51.778;10.330;2022-09-01T17:16:22;16.90;99.90
3912;DHT22;1971;51.778;10.330;2022-09-01T17:19:02;16.70;99.90
3912;DHT22;1971;51.778;10.330;2022-09-01T17:21:47;16.70;99.90
3912;DHT22;1971;51.778;10.330;2022-09-01T17:24:30;16.70;99.90
3912;DHT22;1971;51.778;10.330;2022-09-01T17:27:17;16.50;99.90
3912;DHT22;1971;51.778;10.330;2022-09-01T17:30:01;16.50;99.90
3912;DHT22;1971;51.778;10.330;2022-09-01T17:32:53;16.50;99.90
3912;DHT22;1971;51.778;10.330;2022-09-01T17:35:36;16.40;99.90
3912;DHT22;1971;51.778;10.330;2022-09-01T17:38:19;16.30;99.90
3912;DHT22;1971;51.778;10.330;2022-09-01T17:41:05;16.30;99.90